Time;durP1;ratioP1;P1;durP2;ratioP2;P2;SDS_P1;SDS_P2;PMS_P1;PMS_P2;Temp;Humidity;BMP_temperature;BMP_pressure;BME280_temperature;BME280_humidity;BME280_pressure;Samples;Min_cycle;Max_cycle;Signal;HPM_P1;HPM_P2
2022/06/19 12:24:16;;;;;;;3.45;2.25;;;35.70;34.20;;;;;;4920723;29;20233;-68
2022/06/19 12:26:48;;;;;;;3.22;2.70;;;36.60;32.10;;;;;;4919014;29;20215;-69
2022/06/19 12:29:58;;;;;;;3.75;2.67;;;37.20;30.60;;;;;;4912111;29;20187;-69
2022/06/19 12:32:27;;;;;;;3.10;2.47;;;37.80;33.20;;;;;;4900066;29;20233;-70
2022/06/19 12:34:57;;;;;;;7.28;2.78;;;38.40;29.70;;;;;;4923048;29;20187;-70
2022/06/19 12:37:27;;;;;;;4.65;2.53;;;38.80;31.30;;;;;;4906102;29;20218;-69
2022/06/19 12:39:54;;;;;;;2.53;2.20;;;39.20;31.20;;;;;;4920098;29;20190;-69
2022/06/19 12:42:26;;;;;;;3.95;2.15;;;39.40;28.70;;;;;;4910329;29;20275;-70
2022/06/19 12:45:10;;;;;;;3.03;2.00;;;39.70;29.90;;;;;;4916070;29;20183;-70
2022/06/19 12:48:07;;;;;;;3.03;2.28;;;39.80;28.40;;;;;;4907175;29;20195;-70
2022/06/19 12:50:56;;;;;;;3.20;1.98;;;40.30;29.20;;;;;;4905118;29;20283;-65
2022/06/19 12:53:43;;;;;;;4.75;2.08;;;40.10;28.90;;;;;;4928438;29;20194;-68
2022/06/19 12:56:37;;;;;;;5.72;2.63;;;39.70;28.40;;;;;;4919234;29;20214;-68
2022/06/19 12:59:21;;;;;;;2.90;2.17;;;39.80;31.60;;;;;;4935070;29;20216;-69
2022/06/19 13:02:13;;;;;;;2.45;2.10;;;40.20;30.30;;;;;;4910037;29;20233;-69
2022/06/19 13:04:51;;;;;;;3.33;2.65;;;40.30;31.00;;;;;;4917314;29;20194;-69
2022/06/19 13:07:26;;;;;;;5.30;2.60;;;40.40;30.80;;;;;;4917957;29;20186;-69
2022/06/19 13:10:24;;;;;;;3.30;2.13;;;39.90;29.50;;;;;;4916644;29;20186;-69
2022/06/19 13:13:04;;;;;;;2.35;2.15;;;40.10;32.00;;;;;;4931751;29;20256;-69
2022/06/19 13:15:51;;;;;;;4.30;2.38;;;40.30;30.20;;;;;;4918325;29;20178;-70
2022/06/19 13:18:24;;;;;;;4.15;2.47;;;40.60;28.40;;;;;;4919114;29;20194;-70
2022/06/19 13:21:26;;;;;;;7.18;2.50;;;40.20;28.60;;;;;;4918492;29;20194;-70
2022/06/19 13:23:58;;;;;;;3.83;2.50;;;40.30;29.30;;;;;;4894761;29;20208;-71
2022/06/19 13:27:12;;;;;;;4.90;2.47;;;40.30;29.50;;;;;;4909202;29;20262;-70
2022/06/19 13:29:43;;;;;;;3.35;2.47;;;40.20;30.00;;;;;;4919330;29;20226;-68
2022/06/19 13:32:41;;;;;;;3.22;2.55;;;39.80;28.20;;;;;;4914717;29;20209;-70
2022/06/19 13:35:31;;;;;;;5.55;2.60;;;40.20;30.00;;;;;;4914580;29;20222;-69
2022/06/19 13:38:00;;;;;;;4.68;2.45;;;39.90;29.40;;;;;;4866954;29;20247;-70
2022/06/19 13:40:32;;;;;;;3.10;2.40;;;40.20;30.30;;;;;;4880637;29;20199;-70
2022/06/19 13:43:11;;;;;;;3.60;2.47;;;40.30;31.70;;;;;;4870929;29;20367;-70
2022/06/19 13:46:04;;;;;;;3.53;2.60;;;40.40;29.10;;;;;;4880170;29;20219;-70
2022/06/19 13:48:51;;;;;;;4.10;2.53;;;40.10;28.70;;;;;;4868179;29;20200;-70
2022/06/19 13:51:28;;;;;;;3.75;2.45;;;40.10;31.30;;;;;;4875478;29;20228;-70
2022/06/19 13:54:05;;;;;;;2.60;2.38;;;40.10;29.70;;;;;;4870278;29;20203;-69
2022/06/19 13:57:06;;;;;;;4.07;2.30;;;39.70;28.90;;;;;;4890598;29;20212;-70
2022/06/19 14:00:00;;;;;;;3.13;2.35;;;39.50;29.10;;;;;;4877367;29;20195;-70
2022/06/19 14:02:31;;;;;;;2.55;2.25;;;39.20;29.30;;;;;;4872873;29;20199;-69
2022/06/19 14:05:14;;;;;;;3.30;2.88;;;38.80;29.60;;;;;;4868194;29;20211;-69
2022/06/19 14:08:01;;;;;;;3.10;2.85;;;38.70;29.40;;;;;;4870642;29;20257;-69
2022/06/19 14:10:45;;;;;;;2.90;2.60;;;38.40;31.00;;;;;;4894544;29;20344;-70
2022/06/19 14:13:40;;;;;;;6.53;2.65;;;38.30;33.70;;;;;;4892051;29;20191;-70
2022/06/19 14:16:44;;;;;;;3.92;2.70;;;38.00;29.90;;;;;;4883429;29;20228;-69
2022/06/19 14:19:22;;;;;;;3.58;2.25;;;37.50;32.30;;;;;;4881518;29;20191;-69
2022/06/19 14:21:47;;;;;;;4.13;2.60;;;37.00;33.30;;;;;;4876510;29;20259;-69
2022/06/19 14:24:22;;;;;;;6.67;2.63;;;36.50;32.80;;;;;;4887873;29;20282;-70
2022/06/19 14:27:04;;;;;;;2.53;2.33;;;36.20;34.00;;;;;;4892992;29;20238;-66
2022/06/19 14:29:30;;;;;;;3.53;2.53;;;36.20;34.80;;;;;;4893489;29;20210;-67
2022/06/19 14:31:57;;;;;;;4.13;2.67;;;35.90;35.30;;;;;;4880244;29;20195;-67
2022/06/19 14:35:05;;;;;;;3.20;2.80;;;35.60;36.20;;;;;;4860818;29;20235;-66
2022/06/19 14:37:41;;;;;;;2.97;2.67;;;35.30;36.20;;;;;;4865250;29;20228;-67
2022/06/19 14:40:19;;;;;;;5.73;3.10;;;35.20;37.60;;;;;;4883383;29;20235;-66
2022/06/19 14:43:02;;;;;;;5.27;2.70;;;34.90;36.60;;;;;;4876556;29;20191;-66
2022/06/19 14:45:58;;;;;;;3.17;2.87;;;34.70;38.60;;;;;;4872513;29;20220;-66
2022/06/19 14:48:41;;;;;;;4.70;2.80;;;34.40;38.00;;;;;;4877600;29;20208;-66
2022/06/19 14:51:35;;;;;;;3.40;3.10;;;34.20;38.30;;;;;;4878884;29;20203;-66
2022/06/19 14:54:22;;;;;;;3.60;3.07;;;33.90;39.70;;;;;;4897091;29;20192;-67
2022/06/19 14:57:18;;;;;;;3.27;2.67;;;33.70;38.90;;;;;;4888842;29;20221;-67
2022/06/19 15:00:04;;;;;;;3.23;2.93;;;33.70;39.90;;;;;;4886905;29;20199;-66
2022/06/19 15:02:54;;;;;;;7.87;3.67;;;33.50;39.40;;;;;;4887865;29;20199;-66
2022/06/19 15:05:29;;;;;;;3.13;2.83;;;33.40;41.30;;;;;;4884130;29;20205;-66
2022/06/19 15:08:05;;;;;;;4.13;3.30;;;33.20;41.40;;;;;;4881509;29;20202;-66
2022/06/19 15:10:37;;;;;;;3.73;3.33;;;33.20;40.60;;;;;;4877746;29;20195;-66
2022/06/19 15:13:14;;;;;;;4.17;3.43;;;33.10;42.00;;;;;;4870827;29;20217;-67
2022/06/19 15:15:46;;;;;;;3.83;3.30;;;32.80;40.10;;;;;;4868080;29;20204;-67
2022/06/19 15:18:22;;;;;;;3.47;3.17;;;32.70;39.60;;;;;;4897180;29;20219;-66
2022/06/19 15:20:57;;;;;;;3.87;2.90;;;32.60;40.60;;;;;;4884195;29;20192;-66
2022/06/19 15:23:31;;;;;;;4.63;3.47;;;32.40;41.50;;;;;;4871739;29;20198;-65
2022/06/19 15:26:21;;;;;;;4.00;3.17;;;32.20;42.30;;;;;;4874399;29;20235;-68
2022/06/19 15:28:49;;;;;;;4.00;3.20;;;32.20;42.40;;;;;;4872606;29;20236;-68
2022/06/19 15:31:18;;;;;;;3.97;3.60;;;32.10;41.40;;;;;;4864248;29;20264;-66
2022/06/19 15:33:51;;;;;;;4.37;3.47;;;32.10;42.20;;;;;;4875750;29;20188;-68
2022/06/19 15:36:19;;;;;;;4.13;3.43;;;31.80;43.00;;;;;;4867701;29;20216;-65
2022/06/19 15:38:56;;;;;;;3.87;3.50;;;31.80;44.10;;;;;;4880255;29;20191;-62
2022/06/19 15:41:41;;;;;;;5.27;3.83;;;31.70;43.40;;;;;;4875555;29;20190;-61
2022/06/19 15:44:19;;;;;;;5.97;3.57;;;31.50;40.90;;;;;;4871370;29;20191;-61
2022/06/19 15:47:07;;;;;;;5.17;2.50;;;31.50;43.30;;;;;;4881031;29;20252;-63
2022/06/19 15:49:45;;;;;;;3.60;2.60;;;31.30;44.20;;;;;;4867848;29;20195;-64
2022/06/19 15:52:28;;;;;;;5.20;3.70;;;31.20;45.10;;;;;;4868853;29;20188;-62
2022/06/19 15:55:17;;;;;;;4.63;3.40;;;31.00;45.70;;;;;;4883183;29;20236;-61
2022/06/19 15:57:49;;;;;;;5.57;3.73;;;31.00;46.20;;;;;;4868230;29;20378;-63
2022/06/19 16:00:18;;;;;;;3.60;3.30;;;30.80;44.50;;;;;;4875353;29;20211;-64
2022/06/19 16:02:47;;;;;;;5.33;3.80;;;30.80;46.10;;;;;;4876883;29;20287;-65
2022/06/19 16:05:32;;;;;;;4.13;3.30;;;30.70;44.30;;;;;;4855941;29;20193;-65
2022/06/19 16:08:00;;;;;;;7.13;3.90;;;30.50;46.60;;;;;;4874264;29;20196;-65
2022/06/19 16:10:31;;;;;;;4.10;3.80;;;30.50;47.00;;;;;;4862086;29;20204;-64
2022/06/19 16:13:12;;;;;;;4.17;3.40;;;30.50;47.20;;;;;;4896839;29;20192;-64
2022/06/19 16:15:39;;;;;;;4.27;3.67;;;30.50;44.80;;;;;;4868935;29;20192;-64
2022/06/19 16:18:29;;;;;;;5.90;3.67;;;30.40;46.20;;;;;;4881295;29;20207;-64
2022/06/19 16:21:01;;;;;;;4.40;4.00;;;30.40;45.60;;;;;;4875821;29;20192;-64
2022/06/19 16:23:36;;;;;;;5.30;3.70;;;30.30;47.30;;;;;;4881206;29;20187;-64
2022/06/19 16:26:02;;;;;;;4.73;3.67;;;30.30;48.90;;;;;;4881443;29;20227;-64
2022/06/19 16:28:31;;;;;;;4.50;3.37;;;30.20;48.70;;;;;;4874130;29;20256;-64
2022/06/19 16:31:05;;;;;;;4.37;3.70;;;30.10;46.80;;;;;;4877669;29;20240;-64
2022/06/19 16:33:49;;;;;;;4.37;4.07;;;30.00;46.00;;;;;;4878319;29;20203;-64
2022/06/19 16:44:43;;;;;;;4.53;3.50;;;29.60;47.00;;;;;;4889941;29;20722;-64
2022/06/19 16:47:27;;;;;;;4.17;3.73;;;29.50;47.20;;;;;;4866377;29;20207;-64
2022/06/19 16:49:58;;;;;;;4.23;3.63;;;29.50;49.00;;;;;;4878779;29;20204;-64
2022/06/19 16:52:25;;;;;;;4.00;3.57;;;29.30;48.10;;;;;;4873458;29;20205;-64
2022/06/19 16:55:02;;;;;;;3.87;3.10;;;29.30;47.80;;;;;;4862812;29;20196;-64
2022/06/19 16:57:40;;;;;;;4.00;3.70;;;29.20;47.30;;;;;;4886375;29;20255;-64
2022/06/19 17:00:24;;;;;;;4.73;3.80;;;29.20;50.20;;;;;;4868159;29;20188;-64
2022/06/19 17:02:59;;;;;;;3.90;3.13;;;29.10;49.00;;;;;;4878958;29;20199;-64
2022/06/19 17:05:28;;;;;;;4.10;3.70;;;29.00;46.70;;;;;;4869482;29;20181;-65
2022/06/19 17:10:40;;;;;;;3.90;3.60;;;28.80;46.50;;;;;;4865992;29;20320;-65
2022/06/19 17:13:11;;;;;;;6.47;3.50;;;28.70;47.70;;;;;;4863292;29;20250;-65
2022/06/19 17:15:48;;;;;;;3.83;3.50;;;28.70;49.60;;;;;;4880902;29;20203;-65
2022/06/19 17:18:15;;;;;;;3.70;3.40;;;28.60;48.60;;;;;;4866503;29;20216;-66
2022/06/19 17:20:42;;;;;;;3.80;3.50;;;28.50;48.90;;;;;;4875614;29;20191;-68
2022/06/19 17:23:26;;;;;;;5.90;3.73;;;28.40;49.20;;;;;;4862706;29;20195;-69
2022/06/19 17:26:15;;;;;;;4.23;3.83;;;28.30;49.70;;;;;;4874177;29;20284;-64
2022/06/19 17:28:53;;;;;;;5.03;3.47;;;28.20;50.40;;;;;;4866681;29;20203;-66
2022/06/19 17:31:26;;;;;;;4.13;3.70;;;28.00;50.30;;;;;;4883231;29;20196;-66
2022/06/19 17:33:52;;;;;;;4.03;3.33;;;28.00;50.70;;;;;;4872404;29;20210;-65
2022/06/19 17:36:40;;;;;;;4.07;3.70;;;28.00;50.60;;;;;;4859398;29;20226;-67
2022/06/19 17:39:21;;;;;;;3.90;3.50;;;27.90;50.50;;;;;;4892960;29;20235;-65
2022/06/19 17:41:47;;;;;;;4.13;3.50;;;27.80;50.80;;;;;;4876130;29;20196;-64
2022/06/19 17:44:32;;;;;;;5.93;3.50;;;27.70;51.70;;;;;;4867225;29;20338;-65
2022/06/19 17:47:07;;;;;;;3.77;3.47;;;27.60;52.50;;;;;;4879199;29;20203;-65
2022/06/19 17:49:37;;;;;;;6.43;3.60;;;27.40;52.50;;;;;;4881205;29;20247;-65
2022/06/19 17:52:20;;;;;;;4.13;3.67;;;27.30;51.80;;;;;;4869710;29;20189;-65
2022/06/19 17:54:48;;;;;;;6.77;3.70;;;27.30;52.00;;;;;;4864113;29;20208;-65
2022/06/19 17:57:38;;;;;;;4.13;3.60;;;27.20;53.20;;;;;;4882482;29;20272;-65
2022/06/19 18:00:16;;;;;;;4.87;3.70;;;27.10;53.20;;;;;;4896642;29;20248;-65
2022/06/19 18:03:02;;;;;;;3.77;3.33;;;27.00;53.50;;;;;;4882568;29;20199;-65
2022/06/19 18:05:34;;;;;;;5.13;3.50;;;26.90;52.30;;;;;;4880706;29;20195;-65
2022/06/19 18:08:04;;;;;;;3.63;3.20;;;26.70;52.50;;;;;;4881328;29;20219;-65
2022/06/19 18:10:32;;;;;;;5.73;3.50;;;26.70;53.80;;;;;;4871107;29;20200;-65
2022/06/19 18:13:08;;;;;;;3.80;3.47;;;26.60;53.90;;;;;;4864851;29;20219;-65
2022/06/19 18:21:06;;;;;;;4.47;3.67;;;26.20;54.60;;;;;;4856228;29;20259;-66
2022/06/19 18:23:34;;;;;;;3.90;3.50;;;26.20;55.00;;;;;;4880864;29;20196;-66
2022/06/19 18:26:00;;;;;;;5.97;3.57;;;26.00;55.80;;;;;;4857077;29;20286;-66
2022/06/19 18:28:26;;;;;;;9.80;3.67;;;25.90;54.90;;;;;;4847190;29;20230;-65
2022/06/19 18:30:54;;;;;;;5.77;3.20;;;25.80;55.00;;;;;;4840715;29;20234;-68
2022/06/19 18:33:21;;;;;;;7.90;3.83;;;25.70;55.60;;;;;;4865829;29;20184;-67
2022/06/19 18:35:48;;;;;;;7.77;4.00;;;25.70;55.60;;;;;;4851266;29;20222;-67
2022/06/19 18:38:13;;;;;;;5.90;4.37;;;25.60;56.10;;;;;;4853807;29;20222;-67
2022/06/19 18:40:42;;;;;;;6.50;4.00;;;25.50;56.10;;;;;;4853173;29;20203;-67
2022/06/19 18:43:08;;;;;;;8.17;3.80;;;25.30;57.10;;;;;;4872463;29;20298;-68
2022/06/19 18:45:34;;;;;;;3.83;3.53;;;25.20;57.30;;;;;;4863491;29;20242;-70
2022/06/19 18:48:02;;;;;;;5.93;3.70;;;25.10;57.30;;;;;;4870648;29;20192;-69
2022/06/19 18:50:28;;;;;;;7.87;3.43;;;25.00;56.80;;;;;;4885336;29;20194;-70
2022/06/19 18:52:57;;;;;;;6.27;3.67;;;24.90;58.00;;;;;;4868205;29;20238;-69
2022/06/19 18:55:40;;;;;;;3.63;3.33;;;24.90;57.80;;;;;;4882258;29;20200;-69
2022/06/19 18:58:26;;;;;;;4.37;3.27;;;24.80;57.90;;;;;;4854315;29;20219;-67
2022/06/19 19:00:54;;;;;;;3.47;3.17;;;24.70;58.40;;;;;;4887059;29;20207;-68
2022/06/19 19:03:21;;;;;;;3.93;3.53;;;24.60;58.80;;;;;;4865668;29;20228;-69
2022/06/19 19:05:49;;;;;;;4.93;3.83;;;24.50;58.00;;;;;;4867979;29;20276;-68
2022/06/19 19:08:36;;;;;;;4.57;3.67;;;24.30;59.70;;;;;;4868871;29;20191;-68
2022/06/19 19:11:04;;;;;;;4.73;3.37;;;24.20;60.30;;;;;;4869773;29;20188;-69
2022/06/19 19:13:40;;;;;;;4.40;3.30;;;24.00;58.70;;;;;;4874867;29;20192;-69
2022/06/19 19:16:28;;;;;;;5.50;3.77;;;24.00;59.90;;;;;;4882867;29;20210;-68
2022/06/19 19:18:57;;;;;;;4.70;3.50;;;23.90;60.60;;;;;;4874803;29;20216;-68
2022/06/19 19:21:22;;;;;;;4.10;3.67;;;23.80;60.10;;;;;;4879951;29;20187;-69
2022/06/19 19:23:48;;;;;;;4.03;3.47;;;23.80;60.50;;;;;;4850328;29;20196;-68
2022/06/19 19:26:28;;;;;;;4.53;4.13;;;23.70;61.20;;;;;;4861753;29;20232;-70
2022/06/19 19:28:59;;;;;;;4.07;3.50;;;23.70;61.30;;;;;;4855394;29;20196;-68
2022/06/19 19:31:26;;;;;;;4.67;4.27;;;23.60;61.00;;;;;;4876839;29;20184;-68
2022/06/19 19:33:55;;;;;;;4.23;3.73;;;23.50;61.50;;;;;;4867926;29;20298;-68
2022/06/19 19:36:21;;;;;;;3.97;3.57;;;23.40;61.90;;;;;;4884060;29;20212;-69
2022/06/19 19:38:49;;;;;;;4.17;3.87;;;23.30;62.10;;;;;;4883540;29;20212;-69
2022/06/19 19:41:15;;;;;;;4.43;4.03;;;23.30;62.50;;;;;;4868516;29;20243;-70
2022/06/19 19:43:42;;;;;;;4.67;3.73;;;23.20;63.10;;;;;;4864929;29;20344;-70
2022/06/19 19:46:30;;;;;;;4.00;3.60;;;23.10;63.20;;;;;;4857749;29;20199;-69
2022/06/19 19:48:56;;;;;;;4.40;4.00;;;23.00;63.70;;;;;;4882910;29;20184;-70
2022/06/19 19:51:24;;;;;;;4.00;3.70;;;22.90;63.40;;;;;;4864845;29;20199;-72
2022/06/19 19:53:50;;;;;;;4.77;4.23;;;22.80;63.80;;;;;;4866648;29;20201;-69
2022/06/19 19:56:19;;;;;;;4.50;4.07;;;22.80;63.90;;;;;;4883178;29;20319;-70
2022/06/19 19:58:45;;;;;;;3.87;3.57;;;22.70;63.90;;;;;;4882012;29;20215;-71
2022/06/19 20:01:13;;;;;;;4.77;4.17;;;22.70;63.70;;;;;;4881844;29;20183;-74
2022/06/19 20:03:40;;;;;;;4.70;4.20;;;22.60;64.30;;;;;;4866783;29;20242;-68
2022/06/19 20:11:37;;;;;;;4.33;3.90;;;22.40;64.90;;;;;;4894154;29;20227;-67
2022/06/19 20:14:03;;;;;;;4.77;4.13;;;22.40;64.40;;;;;;4866669;29;20255;-67
2022/06/19 20:16:30;;;;;;;6.13;4.00;;;22.20;64.50;;;;;;4856427;29;20298;-67
2022/06/19 20:18:55;;;;;;;4.77;4.17;;;22.30;64.20;;;;;;4865229;29;20195;-67
2022/06/19 20:21:38;;;;;;;4.00;3.63;;;22.20;63.50;;;;;;4866762;29;20188;-67
2022/06/19 20:24:08;;;;;;;4.40;4.00;;;22.20;64.20;;;;;;4882549;29;20229;-67
2022/06/19 20:26:39;;;;;;;4.60;4.20;;;22.20;65.30;;;;;;4883477;29;20228;-67
2022/06/19 20:29:33;;;;;;;4.47;4.17;;;22.00;65.60;;;;;;4882821;29;20219;-67
2022/06/19 20:32:05;;;;;;;4.27;3.87;;;21.90;66.30;;;;;;4873259;29;20196;-67
2022/06/19 20:34:31;;;;;;;4.40;4.10;;;21.80;66.40;;;;;;4882411;29;20195;-67
2022/06/19 20:36:57;;;;;;;4.30;4.00;;;21.80;66.30;;;;;;4880742;29;20298;-67
2022/06/19 20:39:26;;;;;;;5.23;4.50;;;21.80;66.40;;;;;;4849964;29;20283;-67
2022/06/19 20:44:37;;;;;;;4.63;4.17;;;21.70;65.70;;;;;;4884384;29;20218;-66
2022/06/19 20:47:05;;;;;;;4.63;4.23;;;21.60;66.80;;;;;;4871065;29;20303;-67
2022/06/19 20:49:38;;;;;;;5.20;4.23;;;21.50;67.20;;;;;;4882864;29;20275;-66
2022/06/19 20:52:09;;;;;;;4.60;4.17;;;21.50;66.90;;;;;;4874374;29;20279;-66
2022/06/19 20:54:35;;;;;;;5.07;4.30;;;21.60;67.20;;;;;;4864010;29;20191;-66
2022/06/19 20:57:00;;;;;;;4.47;4.07;;;21.50;67.60;;;;;;4875915;29;20216;-66
2022/06/19 20:59:26;;;;;;;4.70;4.27;;;21.40;67.40;;;;;;4866350;29;20195;-66
2022/06/19 21:01:52;;;;;;;6.30;4.03;;;21.30;67.70;;;;;;4860859;29;20191;-66
2022/06/19 21:04:17;;;;;;;4.43;4.03;;;21.40;67.30;;;;;;4851766;29;20195;-66
2022/06/19 21:06:43;;;;;;;3.90;3.47;;;21.30;67.90;;;;;;4850621;29;20198;-66
2022/06/19 21:09:16;;;;;;;4.27;3.90;;;21.30;67.70;;;;;;4851845;29;20281;-67
2022/06/19 21:11:41;;;;;;;4.63;4.23;;;21.30;67.40;;;;;;4884572;29;20283;-66
2022/06/19 21:14:10;;;;;;;6.17;4.23;;;21.30;67.30;;;;;;4852326;29;20268;-66
2022/06/19 21:16:37;;;;;;;4.47;4.07;;;21.30;67.50;;;;;;4896199;29;20290;-66
2022/06/19 21:19:04;;;;;;;4.30;4.00;;;21.20;67.40;;;;;;4882035;29;20187;-66
2022/06/19 21:21:35;;;;;;;5.53;4.30;;;21.20;67.30;;;;;;4883084;29;20271;-66
2022/06/19 21:24:04;;;;;;;6.47;4.30;;;21.10;67.50;;;;;;4883123;29;20236;-66
2022/06/19 21:26:30;;;;;;;6.83;4.70;;;21.00;67.20;;;;;;4898002;29;20246;-66
2022/06/19 21:28:56;;;;;;;4.10;3.67;;;21.10;66.60;;;;;;4867164;29;20199;-66
2022/06/19 21:31:22;;;;;;;4.57;3.60;;;21.10;66.30;;;;;;4875510;29;20203;-66
2022/06/19 21:33:49;;;;;;;4.30;3.97;;;21.10;66.10;;;;;;4864367;29;20200;-66
2022/06/19 21:36:19;;;;;;;5.20;4.70;;;21.00;66.40;;;;;;4861037;29;20192;-66
2022/06/19 21:38:47;;;;;;;4.50;4.10;;;20.90;67.50;;;;;;4882453;29;20199;-66
2022/06/19 21:41:26;;;;;;;4.43;4.03;;;20.80;68.00;;;;;;4882683;29;20191;-66
2022/06/19 21:43:51;;;;;;;4.70;4.30;;;20.90;68.20;;;;;;4882877;29;20239;-66
2022/06/19 21:46:22;;;;;;;5.20;3.93;;;20.80;68.00;;;;;;4883947;29;20183;-66
2022/06/19 21:48:48;;;;;;;4.80;4.40;;;20.80;68.00;;;;;;4882312;29;20222;-67
2022/06/19 21:51:18;;;;;;;4.23;3.90;;;20.80;68.10;;;;;;4878092;29;20187;-66
2022/06/19 21:53:49;;;;;;;5.07;4.57;;;20.70;68.80;;;;;;4881962;29;20199;-66
2022/06/19 21:56:16;;;;;;;5.27;4.47;;;20.60;69.40;;;;;;4902512;29;20187;-66
2022/06/19 21:58:41;;;;;;;7.20;4.73;;;20.70;69.30;;;;;;4851521;29;20199;-66
2022/06/19 22:01:09;;;;;;;7.77;5.03;;;20.60;69.20;;;;;;4863787;29;20185;-66
2022/06/19 22:03:35;;;;;;;5.47;4.37;;;20.60;69.10;;;;;;4893416;29;20179;-66
2022/06/19 22:06:11;;;;;;;5.13;4.70;;;20.50;68.80;;;;;;4865721;29;20252;-66
2022/06/19 22:08:38;;;;;;;5.37;4.50;;;20.50;69.00;;;;;;4872554;29;20188;-67
2022/06/19 22:13:57;;;;;;;5.20;4.73;;;20.40;69.60;;;;;;4896615;29;20275;-66
2022/06/19 22:16:22;;;;;;;4.57;4.20;;;20.40;69.20;;;;;;4861670;29;20279;-67
2022/06/19 22:18:48;;;;;;;7.47;4.60;;;20.30;69.50;;;;;;4858665;29;20223;-66
2022/06/19 22:21:15;;;;;;;5.93;4.80;;;20.30;69.90;;;;;;4864478;29;20192;-67
2022/06/19 22:23:42;;;;;;;6.20;5.23;;;20.30;69.90;;;;;;4879409;29;20195;-66
2022/06/19 22:26:20;;;;;;;5.33;4.67;;;20.30;70.50;;;;;;4866283;29;20235;-66
2022/06/19 22:28:53;;;;;;;5.33;4.30;;;20.30;70.50;;;;;;4876186;29;20187;-67
2022/06/19 22:31:19;;;;;;;5.00;4.37;;;20.30;70.00;;;;;;4871245;29;20283;-66
2022/06/19 22:33:45;;;;;;;5.17;4.70;;;20.20;70.00;;;;;;4880831;29;20194;-66
2022/06/19 22:36:18;;;;;;;5.27;4.63;;;20.20;70.70;;;;;;4867096;29;20192;-66
2022/06/19 22:38:49;;;;;;;5.10;4.60;;;20.10;71.30;;;;;;4873264;29;20236;-67
2022/06/19 22:41:15;;;;;;;5.90;5.30;;;20.00;71.40;;;;;;4875703;29;20188;-67
2022/06/19 22:43:40;;;;;;;4.73;4.37;;;20.00;71.70;;;;;;4866661;29;20192;-66
2022/06/19 22:46:10;;;;;;;6.60;5.30;;;19.90;71.80;;;;;;4884437;29;20215;-66
2022/06/19 22:48:35;;;;;;;5.10;4.60;;;19.90;71.50;;;;;;4902267;29;20188;-67
2022/06/19 22:51:01;;;;;;;5.10;4.60;;;19.90;71.80;;;;;;4854265;29;20199;-66
2022/06/19 22:53:27;;;;;;;6.07;5.40;;;19.90;72.20;;;;;;4851771;29;20276;-66
2022/06/19 22:55:53;;;;;;;5.60;5.10;;;19.90;72.50;;;;;;4854073;29;20275;-67
2022/06/19 23:04:02;;;;;;;6.43;5.83;;;19.80;73.00;;;;;;4901562;29;20258;-67
2022/06/19 23:06:28;;;;;;;6.33;5.73;;;19.80;73.00;;;;;;4871520;29;20248;-67
2022/06/19 23:08:53;;;;;;;6.00;5.50;;;19.80;73.20;;;;;;4884397;29;20303;-67
2022/06/19 23:11:19;;;;;;;7.40;5.23;;;19.80;73.40;;;;;;4846369;29;20223;-67
2022/06/19 23:13:45;;;;;;;5.93;5.37;;;19.80;73.40;;;;;;4908524;29;20203;-67
2022/06/19 23:16:15;;;;;;;6.53;5.37;;;19.80;73.50;;;;;;4870459;29;20196;-66
2022/06/19 23:18:42;;;;;;;5.90;5.40;;;19.70;74.00;;;;;;4901582;29;20195;-67
2022/06/19 23:21:08;;;;;;;7.50;5.73;;;19.70;74.30;;;;;;4869018;29;20194;-67
2022/06/19 23:23:35;;;;;;;6.43;5.80;;;19.70;74.50;;;;;;4864011;29;20203;-67
2022/06/19 23:26:04;;;;;;;9.83;5.80;;;19.60;74.80;;;;;;4880446;29;20238;-67
2022/06/19 23:28:43;;;;;;;6.33;5.73;;;19.60;74.50;;;;;;4880820;29;20192;-66
2022/06/19 23:31:15;;;;;;;5.83;5.23;;;19.60;74.80;;;;;;4875010;29;20196;-67
2022/06/19 23:33:41;;;;;;;6.67;6.07;;;19.50;75.00;;;;;;4870896;29;20191;-67
2022/06/19 23:36:14;;;;;;;6.73;6.13;;;19.50;75.00;;;;;;4856513;29;20204;-67
2022/06/19 23:38:42;;;;;;;7.87;6.70;;;19.50;75.30;;;;;;4904689;29;20235;-67
2022/06/19 23:41:11;;;;;;;6.60;6.00;;;19.50;75.60;;;;;;4884187;29;20192;-67
2022/06/19 23:43:37;;;;;;;7.10;6.50;;;19.40;75.70;;;;;;4881166;29;20188;-67
2022/06/19 23:46:06;;;;;;;6.90;5.97;;;19.40;75.90;;;;;;4862777;29;20196;-67
2022/06/19 23:48:32;;;;;;;7.03;6.33;;;19.40;75.80;;;;;;4884036;29;20192;-67
2022/06/19 23:50:58;;;;;;;6.63;6.03;;;19.30;75.60;;;;;;4853950;29;20219;-67
2022/06/19 23:53:23;;;;;;;6.20;5.60;;;19.30;75.30;;;;;;4866724;29;20202;-67
2022/06/19 23:55:50;;;;;;;10.27;6.27;;;19.40;75.30;;;;;;4864205;29;20193;-67
2022/06/19 23:58:16;;;;;;;6.53;6.03;;;19.40;75.70;;;;;;4865523;29;20220;-67
